sensor_id;sensor_type;location;lat;lon;timestamp;pressure;altitude;pressure_sealevel;temperature;humidity
15817;BME280;8009;50.070;8.232;2023-02-12T00:02:08;102119.28;;;7.97;73.41
15817;BME280;8009;50.070;8.232;2023-02-12T00:04:36;102112.00;;;7.11;76.79
15817;BME280;8009;50.070;8.232;2023-02-12T00:07:05;102114.13;;;6.99;77.75
15817;BME280;8009;50.070;8.232;2023-02-12T00:09:42;102116.06;;;7.56;75.65
15817;BME280;8009;50.070;8.232;2023-02-12T00:12:26;102117.69;;;7.62;75.42
15817;BME280;8009;50.070;8.232;2023-02-12T00:14:57;102115.63;;;7.70;74.96
15817;BME280;8009;50.070;8.232;2023-02-12T00:17:26;102110.84;;;7.52;75.68
15817;BME280;8009;50.070;8.232;2023-02-12T00:19:54;102115.00;;;7.62;75.19
15817;BME280;8009;50.070;8.232;2023-02-12T00:22:23;102118.06;;;7.79;74.45
15817;BME280;8009;50.070;8.232;2023-02-12T00:24:52;102116.25;;;7.80;74.61
15817;BME280;8009;50.070;8.232;2023-02-12T00:27:20;102114.28;;;7.85;74.19
15817;BME280;8009;50.070;8.232;2023-02-12T00:30:09;102119.59;;;7.88;73.67
15817;BME280;8009;50.070;8.232;2023-02-12T00:32:38;102119.47;;;7.63;74.83
15817;BME280;8009;50.070;8.232;2023-02-12T00:38:17;102118.22;;;8.03;73.34
15817;BME280;8009;50.070;8.232;2023-02-12T00:40:46;102114.59;;;7.76;74.16
15817;BME280;8009;50.070;8.232;2023-02-12T00:43:14;102109.78;;;7.86;74.39
15817;BME280;8009;50.070;8.232;2023-02-12T00:45:47;102113.97;;;7.96;73.97
15817;BME280;8009;50.070;8.232;2023-02-12T00:48:16;102113.16;;;7.94;73.94
15817;BME280;8009;50.070;8.232;2023-02-12T00:50:44;102108.97;;;7.84;74.24
15817;BME280;8009;50.070;8.232;2023-02-12T00:53:13;102104.16;;;7.95;73.82
15817;BME280;8009;50.070;8.232;2023-02-12T00:55:41;102103.06;;;8.00;73.85
15817;BME280;8009;50.070;8.232;2023-02-12T00:58:10;102107.06;;;7.87;74.52
15817;BME280;8009;50.070;8.232;2023-02-12T01:00:39;102103.19;;;7.68;75.05
15817;BME280;8009;50.070;8.232;2023-02-12T01:03:10;102102.81;;;7.80;74.75
15817;BME280;8009;50.070;8.232;2023-02-12T01:05:38;102115.78;;;7.95;74.45
15817;BME280;8009;50.070;8.232;2023-02-12T01:08:09;102116.97;;;7.85;74.67
15817;BME280;8009;50.070;8.232;2023-02-12T01:10:38;102118.41;;;7.97;74.29
15817;BME280;8009;50.070;8.232;2023-02-12T01:13:06;102114.22;;;7.88;74.69
15817;BME280;8009;50.070;8.232;2023-02-12T01:15:35;102109.84;;;8.12;73.50
15817;BME280;8009;50.070;8.232;2023-02-12T01:18:06;102112.22;;;7.95;73.92
15817;BME280;8009;50.070;8.232;2023-02-12T01:20:38;102114.03;;;7.94;74.06
15817;BME280;8009;50.070;8.232;2023-02-12T01:23:09;102112.44;;;8.17;73.50
15817;BME280;8009;50.070;8.232;2023-02-12T01:25:37;102110.38;;;8.23;73.05
15817;BME280;8009;50.070;8.232;2023-02-12T01:28:06;102116.50;;;8.00;73.77
15817;BME280;8009;50.070;8.232;2023-02-12T01:30:34;102112.50;;;8.14;73.27
15817;BME280;8009;50.070;8.232;2023-02-12T01:33:02;102109.97;;;8.09;73.40
15817;BME280;8009;50.070;8.232;2023-02-12T01:35:31;102117.94;;;8.12;73.16
15817;BME280;8009;50.070;8.232;2023-02-12T01:38:03;102110.97;;;8.05;73.67
15817;BME280;8009;50.070;8.232;2023-02-12T01:40:31;102111.72;;;8.10;73.57
15817;BME280;8009;50.070;8.232;2023-02-12T01:43:02;102114.16;;;7.90;73.77
15817;BME280;8009;50.070;8.232;2023-02-12T01:45:51;102111.56;;;7.87;73.58
15817;BME280;8009;50.070;8.232;2023-02-12T01:48:24;102113.25;;;7.91;73.57
15817;BME280;8009;50.070;8.232;2023-02-12T01:50:54;102101.78;;;7.84;73.71
15817;BME280;8009;50.070;8.232;2023-02-12T01:53:30;102111.44;;;7.91;73.27
15817;BME280;8009;50.070;8.232;2023-02-12T01:56:01;102104.38;;;7.87;73.60
15817;BME280;8009;50.070;8.232;2023-02-12T01:58:34;102104.53;;;7.82;73.75
15817;BME280;8009;50.070;8.232;2023-02-12T02:01:06;102102.31;;;7.67;74.20
15817;BME280;8009;50.070;8.232;2023-02-12T02:03:36;102105.72;;;7.72;73.80
15817;BME280;8009;50.070;8.232;2023-02-12T02:06:10;102101.59;;;7.61;74.21
15817;BME280;8009;50.070;8.232;2023-02-12T02:08:41;102101.97;;;7.78;73.92
15817;BME280;8009;50.070;8.232;2023-02-12T02:11:10;102107.94;;;7.88;73.40
15817;BME280;8009;50.070;8.232;2023-02-12T02:13:50;102094.34;;;7.92;73.50
15817;BME280;8009;50.070;8.232;2023-02-12T02:16:33;102102.41;;;7.94;73.50
15817;BME280;8009;50.070;8.232;2023-02-12T02:19:11;102095.28;;;7.91;73.59
15817;BME280;8009;50.070;8.232;2023-02-12T02:22:01;102096.16;;;7.92;73.67
15817;BME280;8009;50.070;8.232;2023-02-12T02:24:52;102094.28;;;7.66;74.62
15817;BME280;8009;50.070;8.232;2023-02-12T02:27:31;102098.31;;;7.80;74.29
15817;BME280;8009;50.070;8.232;2023-02-12T02:30:24;102106.47;;;7.77;74.26
15817;BME280;8009;50.070;8.232;2023-02-12T02:32:58;102099.34;;;7.76;74.46
15817;BME280;8009;50.070;8.232;2023-02-12T02:35:39;102093.00;;;7.79;74.00
15817;BME280;8009;50.070;8.232;2023-02-12T02:38:18;102092.94;;;7.80;73.87
15817;BME280;8009;50.070;8.232;2023-02-12T02:40:52;102086.91;;;7.72;74.08
15817;BME280;8009;50.070;8.232;2023-02-12T02:43:26;102098.53;;;7.73;74.11
15817;BME280;8009;50.070;8.232;2023-02-12T02:46:04;102098.59;;;7.71;73.98
15817;BME280;8009;50.070;8.232;2023-02-12T02:48:35;102096.94;;;7.67;74.10
15817;BME280;8009;50.070;8.232;2023-02-12T02:51:08;102092.53;;;7.65;74.30
15817;BME280;8009;50.070;8.232;2023-02-12T02:53:42;102094.09;;;7.72;74.13
15817;BME280;8009;50.070;8.232;2023-02-12T02:56:15;102093.22;;;7.71;74.29
15817;BME280;8009;50.070;8.232;2023-02-12T02:58:47;102095.78;;;7.74;74.13
15817;BME280;8009;50.070;8.232;2023-02-12T03:01:22;102090.72;;;7.65;74.41
15817;BME280;8009;50.070;8.232;2023-02-12T03:03:55;102089.69;;;7.69;74.11
15817;BME280;8009;50.070;8.232;2023-02-12T03:06:29;102094.13;;;7.70;73.96
15817;BME280;8009;50.070;8.232;2023-02-12T03:09:14;102097.81;;;7.68;74.32
15817;BME280;8009;50.070;8.232;2023-02-12T03:11:44;102099.63;;;7.67;74.09
15817;BME280;8009;50.070;8.232;2023-02-12T03:14:16;102090.47;;;7.43;74.79
15817;BME280;8009;50.070;8.232;2023-02-12T03:16:53;102088.88;;;7.36;75.03
15817;BME280;8009;50.070;8.232;2023-02-12T03:19:29;102092.03;;;7.52;74.56
15817;BME280;8009;50.070;8.232;2023-02-12T03:22:05;102097.25;;;7.56;74.18
15817;BME280;8009;50.070;8.232;2023-02-12T03:24:40;102090.78;;;7.62;74.34
15817;BME280;8009;50.070;8.232;2023-02-12T03:27:16;102089.13;;;7.58;74.41
15817;BME280;8009;50.070;8.232;2023-02-12T03:33:04;102098.13;;;7.57;74.30
15817;BME280;8009;50.070;8.232;2023-02-12T03:36:09;102093.72;;;7.54;74.47
15817;BME280;8009;50.070;8.232;2023-02-12T03:38:45;102096.41;;;7.54;74.32
15817;BME280;8009;50.070;8.232;2023-02-12T03:41:20;102098.06;;;7.58;74.31
15817;BME280;8009;50.070;8.232;2023-02-12T03:43:51;102089.34;;;7.52;74.50
15817;BME280;8009;50.070;8.232;2023-02-12T03:46:25;102089.88;;;7.63;74.13
15817;BME280;8009;50.070;8.232;2023-02-12T03:49:01;102096.31;;;7.57;74.59
15817;BME280;8009;50.070;8.232;2023-02-12T03:51:33;102098.94;;;7.59;74.13
15817;BME280;8009;50.070;8.232;2023-02-12T03:54:04;102090.84;;;7.61;74.04
15817;BME280;8009;50.070;8.232;2023-02-12T03:56:39;102102.56;;;7.58;74.06
15817;BME280;8009;50.070;8.232;2023-02-12T03:59:10;102104.44;;;7.56;74.04
15817;BME280;8009;50.070;8.232;2023-02-12T04:01:40;102103.22;;;7.37;74.74
15817;BME280;8009;50.070;8.232;2023-02-12T04:04:11;102108.25;;;7.47;74.45
15817;BME280;8009;50.070;8.232;2023-02-12T04:06:40;102106.50;;;7.46;74.45
15817;BME280;8009;50.070;8.232;2023-02-12T04:09:10;102110.41;;;7.66;73.71
15817;BME280;8009;50.070;8.232;2023-02-12T04:11:52;102114.84;;;7.67;73.80
15817;BME280;8009;50.070;8.232;2023-02-12T04:14:30;102117.88;;;7.56;74.21
15817;BME280;8009;50.070;8.232;2023-02-12T04:17:08;102118.13;;;7.47;74.34
15817;BME280;8009;50.070;8.232;2023-02-12T04:19:57;102116.00;;;7.60;74.02
15817;BME280;8009;50.070;8.232;2023-02-12T04:22:40;102120.38;;;7.62;73.95
15817;BME280;8009;50.070;8.232;2023-02-12T04:25:21;102119.56;;;7.58;74.27
15817;BME280;8009;50.070;8.232;2023-02-12T04:27:58;102126.97;;;7.52;74.29
15817;BME280;8009;50.070;8.232;2023-02-12T04:30:34;102130.63;;;7.49;74.56
15817;BME280;8009;50.070;8.232;2023-02-12T04:33:06;102134.09;;;7.53;74.59
15817;BME280;8009;50.070;8.232;2023-02-12T04:35:44;102129.75;;;7.47;74.91
15817;BME280;8009;50.070;8.232;2023-02-12T04:38:18;102133.25;;;7.51;74.59
15817;BME280;8009;50.070;8.232;2023-02-12T04:40:48;102135.19;;;7.46;74.70
15817;BME280;8009;50.070;8.232;2023-02-12T04:43:26;102141.53;;;7.43;74.69
15817;BME280;8009;50.070;8.232;2023-02-12T04:45:54;102134.13;;;7.51;74.41
15817;BME280;8009;50.070;8.232;2023-02-12T04:48:22;102138.59;;;7.52;74.44
15817;BME280;8009;50.070;8.232;2023-02-12T04:50:53;102141.94;;;7.61;74.27
15817;BME280;8009;50.070;8.232;2023-02-12T04:53:22;102141.09;;;7.58;73.89
15817;BME280;8009;50.070;8.232;2023-02-12T04:55:50;102141.06;;;7.60;73.98
15817;BME280;8009;50.070;8.232;2023-02-12T04:58:19;102147.34;;;7.59;74.28
15817;BME280;8009;50.070;8.232;2023-02-12T05:00:47;102142.06;;;7.56;74.18
15817;BME280;8009;50.070;8.232;2023-02-12T05:03:16;102140.34;;;7.53;74.21
15817;BME280;8009;50.070;8.232;2023-02-12T05:05:44;102146.53;;;7.57;74.13
15817;BME280;8009;50.070;8.232;2023-02-12T05:08:16;102146.56;;;7.55;74.18
15817;BME280;8009;50.070;8.232;2023-02-12T05:10:44;102138.38;;;7.60;73.91
15817;BME280;8009;50.070;8.232;2023-02-12T05:13:12;102142.59;;;7.69;73.66
15817;BME280;8009;50.070;8.232;2023-02-12T05:15:40;102144.34;;;7.70;73.82
15817;BME280;8009;50.070;8.232;2023-02-12T05:18:09;102137.13;;;7.72;73.50
15817;BME280;8009;50.070;8.232;2023-02-12T05:20:37;102135.41;;;7.69;73.55
15817;BME280;8009;50.070;8.232;2023-02-12T05:23:05;102141.16;;;7.57;74.22
15817;BME280;8009;50.070;8.232;2023-02-12T05:25:41;102139.09;;;7.65;73.79
15817;BME280;8009;50.070;8.232;2023-02-12T05:28:09;102136.56;;;7.61;74.31
15817;BME280;8009;50.070;8.232;2023-02-12T05:30:37;102142.31;;;7.47;74.68
15817;BME280;8009;50.070;8.232;2023-02-12T05:33:06;102142.06;;;7.56;74.70
15817;BME280;8009;50.070;8.232;2023-02-12T05:35:34;102139.41;;;7.54;74.67
15817;BME280;8009;50.070;8.232;2023-02-12T05:38:02;102143.91;;;7.54;74.34
15817;BME280;8009;50.070;8.232;2023-02-12T05:40:31;102134.25;;;7.48;75.00
15817;BME280;8009;50.070;8.232;2023-02-12T05:43:02;102134.81;;;7.60;74.19
15817;BME280;8009;50.070;8.232;2023-02-12T05:45:31;102131.53;;;7.48;74.57
15817;BME280;8009;50.070;8.232;2023-02-12T05:48:00;102144.13;;;7.46;74.89
15817;BME280;8009;50.070;8.232;2023-02-12T05:50:28;102144.56;;;7.31;75.71
15817;BME280;8009;50.070;8.232;2023-02-12T05:52:58;102150.09;;;6.92;77.57
15817;BME280;8009;50.070;8.232;2023-02-12T05:55:27;102143.16;;;7.18;76.73
15817;BME280;8009;50.070;8.232;2023-02-12T05:57:55;102147.47;;;7.23;76.37
15817;BME280;8009;50.070;8.232;2023-02-12T06:00:26;102142.91;;;7.27;75.97
15817;BME280;8009;50.070;8.232;2023-02-12T06:02:54;102147.97;;;7.38;75.57
15817;BME280;8009;50.070;8.232;2023-02-12T06:05:23;102146.97;;;7.40;75.32
15817;BME280;8009;50.070;8.232;2023-02-12T06:07:51;102140.84;;;7.37;75.54
15817;BME280;8009;50.070;8.232;2023-02-12T06:10:19;102150.59;;;7.41;75.13
15817;BME280;8009;50.070;8.232;2023-02-12T06:12:52;102159.53;;;7.41;75.27
15817;BME280;8009;50.070;8.232;2023-02-12T06:15:20;102147.03;;;7.39;75.55
15817;BME280;8009;50.070;8.232;2023-02-12T06:17:51;102151.63;;;7.35;75.48
15817;BME280;8009;50.070;8.232;2023-02-12T06:20:20;102149.00;;;7.33;75.69
15817;BME280;8009;50.070;8.232;2023-02-12T06:22:48;102147.09;;;7.37;75.77
15817;BME280;8009;50.070;8.232;2023-02-12T06:25:16;102149.72;;;7.39;75.54
15817;BME280;8009;50.070;8.232;2023-02-12T06:27:45;102162.22;;;7.41;75.58
15817;BME280;8009;50.070;8.232;2023-02-12T06:30:14;102168.50;;;7.40;75.58
15817;BME280;8009;50.070;8.232;2023-02-12T06:32:42;102166.72;;;7.41;75.51
15817;BME280;8009;50.070;8.232;2023-02-12T06:35:13;102166.78;;;7.38;75.66
15817;BME280;8009;50.070;8.232;2023-02-12T06:37:42;102166.72;;;7.39;75.86
15817;BME280;8009;50.070;8.232;2023-02-12T06:40:11;102165.72;;;7.43;75.54
15817;BME280;8009;50.070;8.232;2023-02-12T06:42:39;102166.66;;;7.42;75.79
15817;BME280;8009;50.070;8.232;2023-02-12T06:45:08;102169.41;;;7.39;76.01
15817;BME280;8009;50.070;8.232;2023-02-12T06:47:36;102172.97;;;7.41;75.91
15817;BME280;8009;50.070;8.232;2023-02-12T06:50:06;102172.78;;;7.47;75.44
15817;BME280;8009;50.070;8.232;2023-02-12T06:52:37;102163.75;;;7.50;75.54
15817;BME280;8009;50.070;8.232;2023-02-12T06:55:08;102179.00;;;7.49;75.42
15817;BME280;8009;50.070;8.232;2023-02-12T06:57:36;102174.63;;;7.45;75.59
15817;BME280;8009;50.070;8.232;2023-02-12T07:00:06;102182.91;;;7.38;75.93
15817;BME280;8009;50.070;8.232;2023-02-12T07:02:34;102178.25;;;7.44;75.65
15817;BME280;8009;50.070;8.232;2023-02-12T07:05:03;102183.16;;;7.28;76.38
15817;BME280;8009;50.070;8.232;2023-02-12T07:07:32;102184.47;;;7.46;76.06
15817;BME280;8009;50.070;8.232;2023-02-12T07:10:03;102181.97;;;7.39;76.11
15817;BME280;8009;50.070;8.232;2023-02-12T07:12:33;102181.44;;;7.26;76.37
15817;BME280;8009;50.070;8.232;2023-02-12T07:15:01;102174.41;;;7.22;77.08
15817;BME280;8009;50.070;8.232;2023-02-12T07:17:29;102193.31;;;7.17;77.21
15817;BME280;8009;50.070;8.232;2023-02-12T07:19:58;102187.50;;;7.32;76.76
15817;BME280;8009;50.070;8.232;2023-02-12T07:22:28;102183.31;;;7.55;75.99
15817;BME280;8009;50.070;8.232;2023-02-12T07:24:56;102197.38;;;7.65;75.41
15817;BME280;8009;50.070;8.232;2023-02-12T07:27:30;102193.59;;;7.72;75.37
15817;BME280;8009;50.070;8.232;2023-02-12T07:29:58;102190.25;;;7.64;75.31
15817;BME280;8009;50.070;8.232;2023-02-12T07:32:26;102193.66;;;7.38;76.34
15817;BME280;8009;50.070;8.232;2023-02-12T07:34:55;102190.41;;;7.57;76.07
15817;BME280;8009;50.070;8.232;2023-02-12T07:37:23;102195.19;;;7.48;76.53
15817;BME280;8009;50.070;8.232;2023-02-12T07:39:51;102196.00;;;7.50;76.82
15817;BME280;8009;50.070;8.232;2023-02-12T07:42:19;102194.03;;;7.56;76.49
15817;BME280;8009;50.070;8.232;2023-02-12T07:44:50;102189.84;;;7.77;75.72
15817;BME280;8009;50.070;8.232;2023-02-12T07:47:19;102190.28;;;7.62;76.68
15817;BME280;8009;50.070;8.232;2023-02-12T07:49:47;102192.22;;;7.88;75.65
15817;BME280;8009;50.070;8.232;2023-02-12T07:52:16;102196.88;;;7.81;75.99
15817;BME280;8009;50.070;8.232;2023-02-12T07:54:45;102205.53;;;7.62;76.94
15817;BME280;8009;50.070;8.232;2023-02-12T07:57:14;102205.81;;;7.84;76.44
15817;BME280;8009;50.070;8.232;2023-02-12T07:59:42;102204.16;;;8.09;75.12
15817;BME280;8009;50.070;8.232;2023-02-12T08:02:13;102203.91;;;8.17;74.94
15817;BME280;8009;50.070;8.232;2023-02-12T08:04:41;102212.09;;;8.12;75.20
15817;BME280;8009;50.070;8.232;2023-02-12T08:07:09;102204.63;;;7.92;75.84
15817;BME280;8009;50.070;8.232;2023-02-12T08:09:38;102204.75;;;8.19;75.03
15817;BME280;8009;50.070;8.232;2023-02-12T08:12:06;102210.72;;;8.28;74.78
15817;BME280;8009;50.070;8.232;2023-02-12T08:14:35;102209.16;;;8.21;75.03
15817;BME280;8009;50.070;8.232;2023-02-12T08:17:03;102216.00;;;8.31;74.79
15817;BME280;8009;50.070;8.232;2023-02-12T08:19:35;102212.44;;;8.31;74.94
15817;BME280;8009;50.070;8.232;2023-02-12T08:22:04;102211.25;;;8.41;74.84
15817;BME280;8009;50.070;8.232;2023-02-12T08:24:32;102224.56;;;8.46;74.49
15817;BME280;8009;50.070;8.232;2023-02-12T08:27:00;102222.56;;;8.52;73.96
15817;BME280;8009;50.070;8.232;2023-02-12T08:29:29;102221.53;;;8.57;73.74
15817;BME280;8009;50.070;8.232;2023-02-12T08:32:01;102218.84;;;8.57;73.72
15817;BME280;8009;50.070;8.232;2023-02-12T08:34:32;102218.78;;;8.58;73.52
15817;BME280;8009;50.070;8.232;2023-02-12T08:37:05;102215.13;;;8.61;73.73
15817;BME280;8009;50.070;8.232;2023-02-12T08:39:34;102215.84;;;8.66;73.90
15817;BME280;8009;50.070;8.232;2023-02-12T08:42:02;102217.56;;;8.68;73.71
15817;BME280;8009;50.070;8.232;2023-02-12T08:44:31;102222.84;;;8.71;73.66
15817;BME280;8009;50.070;8.232;2023-02-12T08:46:59;102231.63;;;8.78;73.69
15817;BME280;8009;50.070;8.232;2023-02-12T08:49:29;102224.41;;;8.78;73.73
15817;BME280;8009;50.070;8.232;2023-02-12T08:51:58;102224.56;;;8.74;73.58
15817;BME280;8009;50.070;8.232;2023-02-12T08:54:30;102224.06;;;8.89;73.33
15817;BME280;8009;50.070;8.232;2023-02-12T08:56:59;102232.16;;;8.89;73.39
15817;BME280;8009;50.070;8.232;2023-02-12T08:59:28;102232.78;;;8.97;73.33
15817;BME280;8009;50.070;8.232;2023-02-12T09:01:57;102233.94;;;8.89;73.67
15817;BME280;8009;50.070;8.232;2023-02-12T09:04:27;102238.59;;;8.84;73.89
15817;BME280;8009;50.070;8.232;2023-02-12T09:06:55;102237.13;;;9.01;73.12
15817;BME280;8009;50.070;8.232;2023-02-12T09:09:24;102236.38;;;8.96;73.16
15817;BME280;8009;50.070;8.232;2023-02-12T09:11:55;102240.31;;;8.86;74.01
15817;BME280;8009;50.070;8.232;2023-02-12T09:14:23;102233.88;;;8.64;74.94
15817;BME280;8009;50.070;8.232;2023-02-12T09:16:52;102242.59;;;8.72;74.92
15817;BME280;8009;50.070;8.232;2023-02-12T09:19:22;102242.28;;;8.81;74.68
15817;BME280;8009;50.070;8.232;2023-02-12T09:21:51;102233.06;;;8.88;74.62
15817;BME280;8009;50.070;8.232;2023-02-12T09:24:19;102229.41;;;8.91;74.67
15817;BME280;8009;50.070;8.232;2023-02-12T09:26:48;102239.97;;;8.97;74.55
15817;BME280;8009;50.070;8.232;2023-02-12T09:29:19;102238.59;;;8.84;74.76
15817;BME280;8009;50.070;8.232;2023-02-12T09:31:47;102240.69;;;9.02;74.43
15817;BME280;8009;50.070;8.232;2023-02-12T09:34:15;102238.78;;;9.06;74.80
15817;BME280;8009;50.070;8.232;2023-02-12T09:36:43;102236.81;;;9.11;74.45
15817;BME280;8009;50.070;8.232;2023-02-12T09:39:12;102243.84;;;9.15;74.62
15817;BME280;8009;50.070;8.232;2023-02-12T09:41:48;102243.59;;;9.22;74.08
15817;BME280;8009;50.070;8.232;2023-02-12T09:44:34;102245.91;;;9.08;75.09
15817;BME280;8009;50.070;8.232;2023-02-12T09:47:11;102251.63;;;9.24;75.21
15817;BME280;8009;50.070;8.232;2023-02-12T09:50:01;102247.06;;;9.26;75.22
15817;BME280;8009;50.070;8.232;2023-02-12T09:52:32;102246.97;;;9.02;76.10
15817;BME280;8009;50.070;8.232;2023-02-12T09:55:02;102245.63;;;9.16;75.99
15817;BME280;8009;50.070;8.232;2023-02-12T09:57:32;102252.34;;;9.29;75.12
15817;BME280;8009;50.070;8.232;2023-02-12T10:00:06;102253.13;;;9.33;75.14
15817;BME280;8009;50.070;8.232;2023-02-12T10:02:37;102244.06;;;9.35;75.36
15817;BME280;8009;50.070;8.232;2023-02-12T10:05:14;102242.88;;;9.42;75.40
15817;BME280;8009;50.070;8.232;2023-02-12T10:10:50;102251.03;;;9.41;76.23
15817;BME280;8009;50.070;8.232;2023-02-12T10:13:32;102251.22;;;9.36;76.22
15817;BME280;8009;50.070;8.232;2023-02-12T10:16:11;102254.69;;;9.40;75.76
15817;BME280;8009;50.070;8.232;2023-02-12T10:18:50;102249.44;;;9.35;76.34
15817;BME280;8009;50.070;8.232;2023-02-12T10:21:33;102253.28;;;9.28;77.05
15817;BME280;8009;50.070;8.232;2023-02-12T10:24:15;102252.25;;;9.32;77.30
15817;BME280;8009;50.070;8.232;2023-02-12T10:26:52;102249.72;;;9.27;77.13
15817;BME280;8009;50.070;8.232;2023-02-12T10:29:26;102245.97;;;9.32;77.46
15817;BME280;8009;50.070;8.232;2023-02-12T10:32:01;102249.22;;;9.41;76.73
15817;BME280;8009;50.070;8.232;2023-02-12T10:34:34;102246.31;;;9.47;76.57
15817;BME280;8009;50.070;8.232;2023-02-12T10:37:04;102242.47;;;9.55;76.23
15817;BME280;8009;50.070;8.232;2023-02-12T10:39:42;102249.13;;;9.44;76.47
15817;BME280;8009;50.070;8.232;2023-02-12T10:42:16;102249.66;;;9.29;76.70
15817;BME280;8009;50.070;8.232;2023-02-12T10:44:45;102253.56;;;9.45;76.21
15817;BME280;8009;50.070;8.232;2023-02-12T10:47:19;102251.25;;;9.60;75.44
15817;BME280;8009;50.070;8.232;2023-02-12T10:49:51;102238.66;;;9.60;75.72
15817;BME280;8009;50.070;8.232;2023-02-12T10:52:34;102238.75;;;9.57;75.56
15817;BME280;8009;50.070;8.232;2023-02-12T10:55:24;102234.22;;;9.59;75.83
15817;BME280;8009;50.070;8.232;2023-02-12T10:57:52;102227.59;;;9.68;75.48
15817;BME280;8009;50.070;8.232;2023-02-12T11:00:25;102239.66;;;9.33;76.17
15817;BME280;8009;50.070;8.232;2023-02-12T11:03:19;102226.88;;;9.63;74.93
15817;BME280;8009;50.070;8.232;2023-02-12T11:05:50;102223.34;;;9.61;74.66
15817;BME280;8009;50.070;8.232;2023-02-12T11:08:29;102219.94;;;9.56;74.70
15817;BME280;8009;50.070;8.232;2023-02-12T11:11:07;102216.31;;;9.57;74.79
15817;BME280;8009;50.070;8.232;2023-02-12T11:13:39;102210.03;;;9.56;74.74
15817;BME280;8009;50.070;8.232;2023-02-12T11:16:10;102218.56;;;9.44;75.04
15817;BME280;8009;50.070;8.232;2023-02-12T11:18:41;102217.16;;;9.59;74.58
15817;BME280;8009;50.070;8.232;2023-02-12T11:21:11;102218.63;;;9.67;74.25
15817;BME280;8009;50.070;8.232;2023-02-12T11:23:41;102206.84;;;9.93;72.76
15817;BME280;8009;50.070;8.232;2023-02-12T11:26:23;102204.38;;;9.87;73.80
15817;BME280;8009;50.070;8.232;2023-02-12T11:28:54;102196.09;;;9.92;73.54
15817;BME280;8009;50.070;8.232;2023-02-12T11:31:25;102199.72;;;9.92;73.48
15817;BME280;8009;50.070;8.232;2023-02-12T11:34:12;102200.00;;;9.85;73.68
15817;BME280;8009;50.070;8.232;2023-02-12T11:36:43;102188.47;;;10.03;72.71
15817;BME280;8009;50.070;8.232;2023-02-12T11:39:18;102190.41;;;9.99;72.99
15817;BME280;8009;50.070;8.232;2023-02-12T11:41:51;102182.88;;;9.86;73.64
15817;BME280;8009;50.070;8.232;2023-02-12T11:44:23;102187.59;;;10.02;72.86
15817;BME280;8009;50.070;8.232;2023-02-12T11:46:57;102185.50;;;9.87;73.21
15817;BME280;8009;50.070;8.232;2023-02-12T11:49:35;102184.56;;;9.88;73.10
15817;BME280;8009;50.070;8.232;2023-02-12T11:52:05;102181.44;;;9.75;73.33
15817;BME280;8009;50.070;8.232;2023-02-12T11:54:38;102185.56;;;9.86;73.32
15817;BME280;8009;50.070;8.232;2023-02-12T11:57:36;102179.91;;;9.68;74.02
15817;BME280;8009;50.070;8.232;2023-02-12T12:00:16;102179.19;;;9.88;73.02
15817;BME280;8009;50.070;8.232;2023-02-12T12:02:54;102169.88;;;9.72;73.44
15817;BME280;8009;50.070;8.232;2023-02-12T12:05:30;102167.88;;;9.53;74.18
15817;BME280;8009;50.070;8.232;2023-02-12T12:08:05;102161.59;;;9.53;74.10
15817;BME280;8009;50.070;8.232;2023-02-12T12:10:38;102152.81;;;9.71;73.70
15817;BME280;8009;50.070;8.232;2023-02-12T12:13:12;102154.91;;;10.10;72.50
15817;BME280;8009;50.070;8.232;2023-02-12T12:15:44;102163.97;;;9.86;72.97
15817;BME280;8009;50.070;8.232;2023-02-12T12:18:32;102150.31;;;9.90;73.41
15817;BME280;8009;50.070;8.232;2023-02-12T12:21:24;102151.81;;;9.97;72.33
15817;BME280;8009;50.070;8.232;2023-02-12T12:23:58;102150.34;;;10.36;71.51
15817;BME280;8009;50.070;8.232;2023-02-12T12:26:29;102141.84;;;10.45;71.15
15817;BME280;8009;50.070;8.232;2023-02-12T12:29:02;102141.94;;;10.20;71.73
15817;BME280;8009;50.070;8.232;2023-02-12T12:31:37;102136.72;;;10.15;71.55
15817;BME280;8009;50.070;8.232;2023-02-12T12:34:07;102141.16;;;10.40;71.32
15817;BME280;8009;50.070;8.232;2023-02-12T12:37:09;102132.84;;;10.66;70.42
15817;BME280;8009;50.070;8.232;2023-02-12T12:39:53;102134.34;;;10.73;70.18
15817;BME280;8009;50.070;8.232;2023-02-12T12:42:39;102130.22;;;10.65;69.69
15817;BME280;8009;50.070;8.232;2023-02-12T12:45:28;102133.19;;;10.59;69.88
15817;BME280;8009;50.070;8.232;2023-02-12T12:48:11;102132.50;;;10.54;69.97
15817;BME280;8009;50.070;8.232;2023-02-12T12:51:02;102122.66;;;10.73;70.12
15817;BME280;8009;50.070;8.232;2023-02-12T12:53:50;102122.81;;;10.90;69.16
15817;BME280;8009;50.070;8.232;2023-02-12T12:56:32;102118.22;;;10.92;68.36
15817;BME280;8009;50.070;8.232;2023-02-12T12:59:24;102111.34;;;10.85;68.59
15817;BME280;8009;50.070;8.232;2023-02-12T13:07:57;102110.50;;;10.83;69.59
15817;BME280;8009;50.070;8.232;2023-02-12T13:10:36;102112.00;;;10.90;69.03
15817;BME280;8009;50.070;8.232;2023-02-12T13:13:14;102108.97;;;10.78;68.90
15817;BME280;8009;50.070;8.232;2023-02-12T13:15:53;102101.31;;;10.87;67.61
15817;BME280;8009;50.070;8.232;2023-02-12T13:18:31;102098.69;;;10.86;67.47
15817;BME280;8009;50.070;8.232;2023-02-12T13:21:10;102099.09;;;10.77;68.24
15817;BME280;8009;50.070;8.232;2023-02-12T13:23:46;102095.56;;;10.95;67.71
15817;BME280;8009;50.070;8.232;2023-02-12T13:26:23;102087.41;;;10.96;67.53
15817;BME280;8009;50.070;8.232;2023-02-12T13:29:03;102091.88;;;10.97;67.13
15817;BME280;8009;50.070;8.232;2023-02-12T13:31:43;102095.13;;;10.85;67.66
15817;BME280;8009;50.070;8.232;2023-02-12T13:34:16;102083.50;;;11.04;66.50
15817;BME280;8009;50.070;8.232;2023-02-12T13:36:45;102084.41;;;11.03;66.48
15817;BME280;8009;50.070;8.232;2023-02-12T13:39:23;102091.31;;;11.10;66.54
15817;BME280;8009;50.070;8.232;2023-02-12T13:42:02;102090.66;;;11.05;66.30
15817;BME280;8009;50.070;8.232;2023-02-12T13:44:42;102091.47;;;11.07;66.67
15817;BME280;8009;50.070;8.232;2023-02-12T13:47:20;102085.94;;;10.69;67.72
15817;BME280;8009;50.070;8.232;2023-02-12T13:49:59;102081.19;;;10.74;67.08
15817;BME280;8009;50.070;8.232;2023-02-12T13:52:35;102086.19;;;10.83;67.13
15817;BME280;8009;50.070;8.232;2023-02-12T13:55:19;102077.06;;;11.06;66.96
15817;BME280;8009;50.070;8.232;2023-02-12T14:01:02;102081.38;;;11.10;66.56